Grizzly Air Cargo 5378


PAKN
King Salmon Airport
King Salmon, Alaska, US
PABE
Bethel Airport
Bethel, Alaska, US

Activity Log

Date Flight Route Aircraft Duration
12/27/2020 GRZ5378 AKN J123 BET SF34 1h 17m

Route Details

Aircraft Information
Primary: Saab 340AF
Backup: Not Available
Route Data
Distance: 208nm
Sched. Duration: 1h 00m
Avg. Duration: 1h 17m (+18m)
Times Flown: 1
Recm'd Route: AKN J123 BET
Planned Altitude: 20,000ft
Origin Wx: PAKN 230821Z 15006KT 10SM BKN023 OVC030 02/01 A2955 RMK AO2 RAE19 P0001 T00170011
Dest. Wx: PABE 230753Z 10004KT 10SM OVC025 00/M01 A2951 RMK AO2 SLP994 T00001006 $
Notes:

Financial History
Total Freight: 6,545lbs
Average Load: 6,545lbs/flt
Fuel Used: 720lbs
Avg. Fuel Used: 720lbs/flt
Fuel Expense: $864
Avg. Fuel Expense: $864
Avg. Fuel Cost: $1.20/lbs
Total Gross Income: $13,614
Pilot Pay: $229
Total Expenses: $1,522
Total Revenue: $10,957
Average Revenue: $13,613.60